Time;durP1;ratioP1;P1;durP2;ratioP2;P2;SDS_P1;SDS_P2;PMS_P1;PMS_P2;Temp;Humidity;BMP_temperature;BMP_pressure;BME280_temperature;BME280_humidity;BME280_pressure;Samples;Min_cycle;Max_cycle;Signal;HPM_P1;HPM_P2
2023/02/14 00:00:34;;;;;;;41.00;19.57;;;;;;;15.66;75.79;103299.72;5102844;28;20043;-53
2023/02/14 00:02:59;;;;;;;44.23;20.23;;;;;;;15.50;75.54;103296.03;5098559;28;20143;-53
2023/02/14 00:05:25;;;;;;;41.30;20.20;;;;;;;15.77;74.95;103296.69;5098427;28;20036;-52
2023/02/14 00:07:50;;;;;;;48.77;21.43;;;;;;;15.65;75.42;103292.66;5100444;28;20051;-51
2023/02/14 00:10:16;;;;;;;45.10;20.77;;;;;;;15.50;75.64;103290.66;5096521;28;20028;-52
2023/02/14 00:12:41;;;;;;;54.50;24.70;;;;;;;15.68;75.71;103303.94;5098670;28;20039;-49
2023/02/14 00:15:21;;;;;;;50.07;21.13;;;;;;;15.82;74.74;103294.31;5098532;28;20040;-50
2023/02/14 00:17:48;;;;;;;50.55;22.27;;;;;;;15.74;75.24;103292.47;5099150;28;20035;-53
2023/02/14 00:20:14;;;;;;;50.63;21.58;;;;;;;15.63;75.59;103287.44;5097661;28;20143;-51
2023/02/14 00:22:39;;;;;;;49.40;22.73;;;;;;;15.54;76.04;103286.59;5098596;28;20047;-55
2023/02/14 00:25:05;;;;;;;40.93;20.03;;;;;;;15.65;75.57;103285.41;5100732;28;20070;-51
2023/02/14 00:27:30;;;;;;;47.30;21.65;;;;;;;15.56;75.52;103281.88;5099841;28;20044;-54
2023/02/14 00:30:01;;;;;;;53.28;22.88;;;;;;;15.57;75.50;103282.69;5081477;28;20063;-53
2023/02/14 00:32:28;;;;;;;46.58;22.65;;;;;;;15.53;75.57;103287.59;5100146;28;20029;-51
2023/02/14 00:34:54;;;;;;;45.90;22.27;;;;;;;15.54;75.46;103289.28;5097351;28;20124;-49
2023/02/14 00:37:20;;;;;;;50.28;22.38;;;;;;;15.44;75.78;103289.44;5078839;28;20032;-53
2023/02/14 00:39:46;;;;;;;47.75;23.88;;;;;;;15.51;75.44;103284.25;5103794;28;20024;-52
2023/02/14 00:42:13;;;;;;;50.67;22.47;;;;;;;15.60;75.05;103285.91;5084849;28;20073;-49
2023/02/14 00:44:39;;;;;;;51.45;22.75;;;;;;;15.53;75.47;103282.22;5081682;28;20063;-52
2023/02/14 00:47:05;;;;;;;49.90;23.23;;;;;;;15.42;75.78;103271.75;5102945;28;20044;-52
2023/02/14 00:49:30;;;;;;;50.80;22.47;;;;;;;15.55;75.79;103282.03;5097638;28;20037;-56
2023/02/14 00:51:57;;;;;;;47.75;21.50;;;;;;;15.27;76.71;103283.22;5111696;28;20031;-54
2023/02/14 00:54:23;;;;;;;50.78;22.25;;;;;;;15.34;77.44;103281.53;5096087;28;20156;-49
2023/02/14 00:56:49;;;;;;;49.20;21.92;;;;;;;15.05;78.66;103272.06;5082492;28;20037;-52
2023/02/14 00:59:15;;;;;;;51.33;22.10;;;;;;;14.87;79.86;103268.66;5098033;28;20055;-52
2023/02/14 01:01:41;;;;;;;50.87;21.17;;;;;;;14.97;81.49;103277.41;5087078;28;20068;-53
2023/02/14 01:04:08;;;;;;;47.25;22.25;;;;;;;15.25;79.64;103281.69;5097446;28;20031;-54
2023/02/14 01:06:33;;;;;;;49.83;22.63;;;;;;;15.04;81.33;103275.78;5084366;28;20051;-48
2023/02/14 01:08:59;;;;;;;55.63;21.47;;;;;;;15.10;80.63;103278.81;5101703;28;20036;-51
2023/02/14 01:11:25;;;;;;;46.75;22.75;;;;;;;14.97;81.63;103274.72;5101056;28;20260;-53
2023/02/14 01:13:54;;;;;;;45.00;19.92;;;;;;;14.95;81.95;103279.44;5082525;28;20038;-51
2023/02/14 01:16:24;;;;;;;40.70;18.80;;;;;;;14.63;83.83;103284.53;5092437;28;20021;-52
2023/02/14 01:18:50;;;;;;;36.63;17.17;;;;;;;14.61;84.78;103285.72;5079087;28;20036;-51
2023/02/14 01:21:20;;;;;;;37.60;16.70;;;;;;;14.52;85.29;103275.91;5101125;28;20040;-50
2023/02/14 01:23:48;;;;;;;39.17;17.65;;;;;;;14.59;85.34;103271.56;5098760;28;20054;-51
2023/02/14 01:26:14;;;;;;;41.35;18.65;;;;;;;14.66;85.14;103269.09;5103998;28;20025;-47
2023/02/14 01:28:40;;;;;;;32.03;13.90;;;;;;;14.74;84.43;103277.22;5100888;28;20048;-51
2023/02/14 01:31:16;;;;;;;42.55;18.75;;;;;;;14.65;84.48;103270.06;5082813;28;20406;-50
2023/02/14 01:33:43;;;;;;;40.05;19.05;;;;;;;14.60;84.65;103271.41;5075784;28;20060;-53
2023/02/14 01:36:24;;;;;;;40.10;19.23;;;;;;;14.61;84.43;103261.47;5084659;28;20032;-53
2023/02/14 01:38:52;;;;;;;47.08;19.73;;;;;;;14.45;85.21;103270.34;5082121;28;20024;-54
2023/02/14 01:41:19;;;;;;;40.80;19.58;;;;;;;14.58;84.82;103264.50;5081457;28;20037;-50
2023/02/14 01:43:51;;;;;;;41.58;18.90;;;;;;;14.60;84.46;103257.94;5086296;28;20028;-50
2023/02/14 01:46:17;;;;;;;38.85;17.30;;;;;;;14.56;84.88;103263.81;5099888;28;20032;-51
2023/02/14 01:48:42;;;;;;;35.53;15.57;;;;;;;14.72;83.93;103260.38;5084272;28;20040;-53
2023/02/14 01:51:08;;;;;;;31.52;15.18;;;;;;;14.42;84.54;103260.72;5100783;28;20040;-53
2023/02/14 01:53:34;;;;;;;29.60;14.40;;;;;;;14.35;85.05;103267.78;5097865;28;20020;-51
2023/02/14 01:56:08;;;;;;;34.17;16.58;;;;;;;14.53;84.52;103264.13;5098898;28;20088;-54
2023/02/14 01:58:38;;;;;;;30.50;14.63;;;;;;;14.34;84.84;103263.41;5099642;28;20028;-51
2023/02/14 02:01:04;;;;;;;29.40;15.38;;;;;;;14.22;86.59;103264.66;5107481;28;20044;-52
2023/02/14 02:03:43;;;;;;;30.20;13.57;;;;;;;14.25;86.33;103262.50;5095002;28;20024;-51
2023/02/14 02:06:14;;;;;;;27.20;12.80;;;;;;;14.13;86.21;103263.78;5124205;28;20047;-54
2023/02/14 02:08:46;;;;;;;29.02;13.90;;;;;;;14.28;85.79;103259.50;5095990;28;20043;-53
2023/02/14 02:11:12;;;;;;;30.33;14.68;;;;;;;13.88;89.03;103255.56;5097055;28;20048;-53
2023/02/14 02:13:37;;;;;;;33.53;15.47;;;;;;;14.26;87.36;103256.13;5098227;28;20036;-54
2023/02/14 02:16:29;;;;;;;32.87;14.97;;;;;;;14.40;86.02;103253.81;5083900;28;20300;-52
2023/02/14 02:19:04;;;;;;;35.88;16.00;;;;;;;14.39;85.20;103258.38;5113114;28;20024;-52
2023/02/14 02:22:03;;;;;;;38.25;16.45;;;;;;;14.45;85.21;103255.03;5098125;28;20146;-50
2023/02/14 02:24:37;;;;;;;35.50;15.77;;;;;;;14.37;85.57;103257.69;5098561;28;20089;-53
2023/02/14 02:27:11;;;;;;;39.45;17.35;;;;;;;14.36;85.27;103253.31;5100343;28;20039;-53
2023/02/14 02:29:54;;;;;;;32.53;15.60;;;;;;;14.25;85.36;103254.44;5097356;28;20047;-50
2023/02/14 02:32:22;;;;;;;35.13;15.68;;;;;;;14.16;85.57;103250.00;5096063;28;20036;-51
2023/02/14 02:35:11;;;;;;;35.55;16.60;;;;;;;14.17;85.79;103247.16;5103068;28;20080;-49
2023/02/14 02:37:49;;;;;;;40.30;17.45;;;;;;;14.32;85.01;103249.25;5079688;28;20036;-49
2023/02/14 02:40:27;;;;;;;34.40;16.55;;;;;;;14.33;84.60;103246.38;5099899;28;20031;-51
2023/02/14 02:43:30;;;;;;;34.08;15.68;;;;;;;14.35;84.32;103254.31;5095384;28;20037;-51
2023/02/14 02:49:11;;;;;;;37.10;16.95;;;;;;;14.06;85.93;103247.44;5085224;28;20035;-46
2023/02/14 02:54:35;;;;;;;34.45;16.33;;;;;;;14.05;86.71;103248.44;5082103;28;20028;-49
2023/02/14 02:57:04;;;;;;;33.42;15.40;;;;;;;14.02;86.18;103244.22;5099313;28;20036;-52
2023/02/14 02:59:36;;;;;;;31.10;15.57;;;;;;;14.14;85.59;103242.09;5079153;28;20016;-54
2023/02/14 03:02:11;;;;;;;34.75;16.40;;;;;;;14.02;86.40;103241.53;5076454;28;20033;-53
2023/02/14 03:04:53;;;;;;;33.30;15.98;;;;;;;14.02;86.68;103246.06;5099123;28;20040;-54
2023/02/14 03:07:34;;;;;;;37.58;15.82;;;;;;;14.11;85.78;103247.81;5095370;28;20044;-53
2023/02/14 03:10:16;;;;;;;31.77;15.35;;;;;;;14.13;85.56;103251.19;5081117;28;20028;-49
2023/02/14 03:12:52;;;;;;;36.40;15.68;;;;;;;14.10;85.33;103239.88;5078975;28;20039;-51
2023/02/14 03:15:40;;;;;;;29.55;15.00;;;;;;;13.88;86.86;103242.97;5100208;28;20035;-53
2023/02/14 03:18:42;;;;;;;31.38;14.60;;;;;;;13.82;86.69;103243.59;5092766;28;20025;-51
2023/02/14 03:21:27;;;;;;;26.95;14.50;;;;;;;13.83;87.14;103234.50;5081283;28;20035;-51
2023/02/14 03:24:04;;;;;;;35.10;16.88;;;;;;;13.85;86.82;103223.63;5103838;28;20035;-54
2023/02/14 03:26:48;;;;;;;38.05;16.17;;;;;;;13.88;86.67;103225.97;5102541;28;20043;-54
2023/02/14 03:29:26;;;;;;;30.52;14.68;;;;;;;13.79;86.84;103238.53;5083382;28;20048;-50
2023/02/14 03:32:05;;;;;;;31.92;15.85;;;;;;;13.90;86.06;103238.28;5093753;28;20040;-52
2023/02/14 03:34:39;;;;;;;34.80;16.00;;;;;;;13.75;87.61;103235.34;5093899;28;20045;-52
2023/02/14 03:37:13;;;;;;;31.70;15.10;;;;;;;13.28;91.29;103241.00;5085075;28;20096;-52
2023/02/14 03:39:49;;;;;;;35.10;16.77;;;;;;;13.04;92.20;103229.84;5098314;28;20032;-52
2023/02/14 03:42:21;;;;;;;36.50;16.20;;;;;;;13.27;91.89;103237.44;5084767;28;20071;-50
2023/02/14 03:44:49;;;;;;;39.53;17.80;;;;;;;13.45;90.38;103239.31;5078545;28;20067;-51
2023/02/14 03:47:22;;;;;;;37.47;16.63;;;;;;;12.94;92.47;103238.97;5102031;28;20024;-49
2023/02/14 03:49:54;;;;;;;34.85;16.50;;;;;;;13.22;92.12;103237.06;5094836;28;20052;-51
2023/02/14 03:52:21;;;;;;;31.25;16.05;;;;;;;13.36;90.66;103238.34;5100463;28;20032;-49
2023/02/14 03:54:51;;;;;;;42.33;17.30;;;;;;;13.06;91.71;103232.41;5083831;28;20029;-50
2023/02/14 03:57:25;;;;;;;33.40;16.40;;;;;;;13.25;90.14;103236.75;5097875;28;20056;-52
2023/02/14 03:59:52;;;;;;;33.38;16.33;;;;;;;12.81;92.86;103242.03;5098032;28;20028;-49
2023/02/14 04:02:18;;;;;;;36.08;16.83;;;;;;;12.58;94.70;103235.25;5101135;28;20037;-49
2023/02/14 04:04:46;;;;;;;40.93;17.07;;;;;;;12.42;96.06;103233.19;5101038;28;20107;-51
2023/02/14 04:07:15;;;;;;;48.30;18.50;;;;;;;11.91;100.00;103227.31;5103044;28;20288;-51
2023/02/14 04:09:40;;;;;;;37.92;16.98;;;;;;;11.98;100.00;103227.56;5104555;28;20043;-49
2023/02/14 04:12:06;;;;;;;50.83;18.37;;;;;;;11.77;100.00;103231.31;5095670;28;20028;-49
2023/02/14 04:14:32;;;;;;;60.33;19.40;;;;;;;12.19;100.00;103236.25;5103149;28;20062;-51
2023/02/14 04:19:42;;;;;;;48.53;21.27;;;;;;;11.77;100.00;103237.50;5099143;28;20032;-48
2023/02/14 04:22:07;;;;;;;36.40;16.23;;;;;;;11.80;100.00;103241.72;5099917;28;20059;-52
2023/02/14 04:24:33;;;;;;;46.63;21.02;;;;;;;11.81;100.00;103242.56;5105329;28;20116;-50
2023/02/14 04:27:11;;;;;;;51.23;20.57;;;;;;;11.91;100.00;103233.50;5105078;28;20048;-52
2023/02/14 04:29:37;;;;;;;45.20;19.08;;;;;;;11.90;100.00;103231.81;5099081;28;20024;-49
2023/02/14 04:32:03;;;;;;;;;;;;;;;12.18;100.00;103237.25;5111085;28;20066;-54
2023/02/14 04:34:29;;;;;;;48.10;19.00;;;;;;;12.12;100.00;103235.16;5097781;28;19920;-48
2023/02/14 04:36:54;;;;;;;41.10;20.03;;;;;;;12.20;100.00;103237.13;5099592;28;20047;-50
2023/02/14 04:39:19;;;;;;;38.23;18.23;;;;;;;11.96;100.00;103226.84;5106699;28;20036;-52
2023/02/14 04:41:45;;;;;;;47.57;19.10;;;;;;;11.58;100.00;103235.72;5085805;28;20097;-50
2023/02/14 04:44:10;;;;;;;41.80;18.30;;;;;;;12.17;99.57;103232.06;5101459;28;20272;-53
2023/02/14 04:46:36;;;;;;;36.88;18.02;;;;;;;12.39;97.99;103225.44;5103353;28;20085;-48
2023/02/14 04:49:02;;;;;;;38.90;18.47;;;;;;;12.50;96.44;103224.41;5100178;28;20095;-49
2023/02/14 04:51:27;;;;;;;48.73;21.87;;;;;;;12.36;97.10;103220.38;5104279;28;20261;-51
2023/02/14 04:53:52;;;;;;;39.20;19.10;;;;;;;12.61;94.61;103223.34;5101471;28;20101;-51
2023/02/14 04:56:18;;;;;;;35.55;18.00;;;;;;;12.56;94.72;103222.97;5105681;28;20031;-50
2023/02/14 04:58:44;;;;;;;42.22;18.95;;;;;;;12.28;97.02;103217.59;5106755;28;20044;-52
2023/02/14 05:01:09;;;;;;;41.60;18.33;;;;;;;12.10;98.06;103218.38;5102009;28;20050;-54
2023/02/14 05:03:35;;;;;;;35.33;15.77;;;;;;;12.29;97.20;103219.28;5102372;28;20048;-52
2023/02/14 05:06:01;;;;;;;43.17;19.08;;;;;;;12.02;97.85;103218.28;5097287;28;21314;-52
2023/02/14 05:08:26;;;;;;;44.23;20.10;;;;;;;12.09;98.02;103218.50;5106776;28;20047;-50
2023/02/14 05:10:53;;;;;;;30.37;14.53;;;;;;;11.90;98.81;103213.03;5100911;28;20048;-49
2023/02/14 05:13:19;;;;;;;44.65;17.90;;;;;;;11.35;100.00;103204.84;5099671;28;20051;-52
2023/02/14 05:15:45;;;;;;;41.47;18.60;;;;;;;11.77;100.00;103216.06;5098234;28;20032;-52
2023/02/14 05:18:10;;;;;;;42.13;19.75;;;;;;;11.80;100.00;103217.59;5105039;28;20028;-51
2023/02/14 05:20:35;;;;;;;42.23;18.73;;;;;;;11.88;100.00;103208.84;5094344;28;20035;-52
2023/02/14 05:23:02;;;;;;;49.00;21.15;;;;;;;11.73;100.00;103208.44;5101588;28;20054;-52
2023/02/14 05:25:28;;;;;;;47.95;20.05;;;;;;;11.77;100.00;103209.84;5096945;28;20071;-51
2023/02/14 05:27:54;;;;;;;40.05;20.63;;;;;;;11.90;100.00;103210.38;5098418;28;20056;-54
2023/02/14 05:30:26;;;;;;;41.53;19.98;;;;;;;11.54;100.00;103207.50;5100974;28;20061;-53
2023/02/14 05:32:53;;;;;;;44.92;19.95;;;;;;;12.03;98.09;103211.91;5102941;28;20036;-55
2023/02/14 05:35:19;;;;;;;43.50;19.95;;;;;;;11.97;96.78;103209.78;5100482;28;20066;-53
2023/02/14 05:37:44;;;;;;;39.60;19.23;;;;;;;12.32;94.82;103202.91;5100089;28;20056;-52
2023/02/14 05:40:12;;;;;;;32.20;15.27;;;;;;;12.43;93.67;103205.38;5102121;28;20289;-48
2023/02/14 05:42:39;;;;;;;39.67;18.55;;;;;;;12.21;92.91;103205.75;5098527;28;20269;-49
2023/02/14 05:45:05;;;;;;;34.80;18.33;;;;;;;12.37;92.74;103205.13;5093655;28;20059;-52
2023/02/14 05:47:31;;;;;;;35.30;17.92;;;;;;;12.37;92.42;103205.97;5103251;28;20038;-52
2023/02/14 05:49:57;;;;;;;38.38;17.42;;;;;;;12.38;91.64;103207.66;5096281;28;20021;-52
2023/02/14 05:52:22;;;;;;;34.77;17.27;;;;;;;12.15;92.65;103212.59;5102940;28;20061;-51
2023/02/14 05:54:47;;;;;;;44.70;17.53;;;;;;;12.27;92.04;103202.50;5093703;28;20087;-54
2023/02/14 05:57:13;;;;;;;47.05;19.38;;;;;;;12.37;92.67;103216.69;5098778;28;20052;-51
2023/02/14 05:59:38;;;;;;;44.73;19.70;;;;;;;12.20;92.97;103210.28;5099152;28;20048;-54
2023/02/14 06:02:04;;;;;;;45.77;19.90;;;;;;;12.23;93.51;103214.53;5101741;28;20032;-50
2023/02/14 06:04:30;;;;;;;46.47;21.13;;;;;;;12.22;93.52;103211.00;5098317;28;20191;-52
2023/02/14 06:06:55;;;;;;;46.07;20.57;;;;;;;12.19;93.90;103213.97;5095819;28;20104;-52
2023/02/14 06:09:21;;;;;;;46.40;21.37;;;;;;;12.02;95.52;103213.75;5092630;28;20020;-49
2023/02/14 06:11:46;;;;;;;51.42;22.10;;;;;;;12.07;95.34;103218.69;5096236;28;20399;-51
2023/02/14 06:14:11;;;;;;;46.77;21.83;;;;;;;11.78;98.66;103216.91;5097227;28;20078;-53
2023/02/14 06:16:37;;;;;;;50.95;21.45;;;;;;;11.50;100.00;103210.59;5096511;28;20028;-50
2023/02/14 06:19:03;;;;;;;53.23;21.20;;;;;;;11.75;98.99;103217.16;5096911;28;20091;-53
2023/02/14 06:21:28;;;;;;;51.10;22.10;;;;;;;11.70;98.27;103219.44;5101428;28;20056;-51
2023/02/14 06:23:54;;;;;;;48.10;21.73;;;;;;;11.79;98.19;103223.97;5093576;28;20043;-51
2023/02/14 06:26:19;;;;;;;46.00;21.73;;;;;;;11.59;98.45;103217.78;5094016;28;20028;-52
2023/02/14 06:28:44;;;;;;;47.57;20.30;;;;;;;11.63;98.76;103221.84;5095789;28;20059;-52
2023/02/14 06:31:16;;;;;;;47.00;20.63;;;;;;;11.84;97.30;103220.81;5096040;28;20393;-52
2023/02/14 06:33:42;;;;;;;41.75;20.48;;;;;;;11.89;95.53;103224.75;5096671;28;20059;-52
2023/02/14 06:36:08;;;;;;;44.67;20.63;;;;;;;11.57;97.64;103231.34;5093369;28;20071;-50
2023/02/14 06:38:33;;;;;;;51.90;21.10;;;;;;;11.56;98.83;103226.09;5098992;28;20036;-54
2023/02/14 06:41:06;;;;;;;48.77;22.07;;;;;;;11.40;99.57;103224.00;5100390;28;20047;-53
2023/02/14 06:43:32;;;;;;;46.75;21.23;;;;;;;11.53;99.36;103224.53;5097721;28;20038;-52
2023/02/14 06:45:57;;;;;;;48.60;20.52;;;;;;;11.71;96.67;103226.50;5093057;28;20032;-52
2023/02/14 06:48:23;;;;;;;40.72;19.58;;;;;;;11.36;98.11;103227.97;5095242;28;20032;-53
2023/02/14 06:50:49;;;;;;;39.27;18.63;;;;;;;11.57;98.01;103230.47;5093802;28;20056;-51
2023/02/14 06:53:14;;;;;;;35.65;17.83;;;;;;;11.45;96.61;103233.31;5094429;28;20037;-52
2023/02/14 06:55:40;;;;;;;34.17;18.00;;;;;;;11.74;93.05;103236.94;5099017;28;20040;-49
2023/02/14 06:58:05;;;;;;;33.40;17.33;;;;;;;11.58;94.43;103234.84;5091477;28;20028;-50
2023/02/14 07:00:30;;;;;;;30.33;12.93;;;;;;;11.67;93.76;103235.81;5094213;28;20063;-50
2023/02/14 07:02:56;;;;;;;37.53;18.03;;;;;;;11.75;93.30;103239.47;5101030;28;20108;-51
2023/02/14 07:05:22;;;;;;;42.90;21.35;;;;;;;11.72;93.67;103230.88;5098241;28;20077;-51
2023/02/14 07:07:47;;;;;;;46.37;21.13;;;;;;;11.57;95.13;103236.69;5096991;28;20033;-52
2023/02/14 07:10:14;;;;;;;47.90;21.02;;;;;;;11.41;97.57;103225.69;5101780;28;20083;-47
2023/02/14 07:12:40;;;;;;;52.28;23.20;;;;;;;11.59;97.50;103234.72;5100015;28;20071;-47
2023/02/14 07:15:07;;;;;;;51.25;22.08;;;;;;;11.75;96.63;103230.56;5102493;28;20036;-51
2023/02/14 07:17:33;;;;;;;51.17;22.23;;;;;;;11.51;98.04;103226.53;5096112;28;20032;-52
2023/02/14 07:19:58;;;;;;;49.23;23.23;;;;;;;11.53;98.36;103224.53;5099357;28;20028;-54
2023/02/14 07:22:24;;;;;;;41.83;18.77;;;;;;;11.42;99.85;103228.25;5098585;28;20278;-52
2023/02/14 07:24:50;;;;;;;46.70;21.47;;;;;;;11.57;99.13;103227.78;5095628;28;20052;-49
2023/02/14 07:27:16;;;;;;;52.97;22.98;;;;;;;11.49;100.00;103228.50;5097686;28;20032;-52
2023/02/14 07:29:41;;;;;;;52.70;23.73;;;;;;;10.95;100.00;103234.28;5095832;28;20107;-51
2023/02/14 07:32:07;;;;;;;57.63;24.70;;;;;;;11.48;100.00;103237.53;5097512;28;20032;-52
2023/02/14 07:34:32;;;;;;;53.33;24.53;;;;;;;11.70;98.96;103240.88;5094275;28;20053;-49
2023/02/14 07:36:58;;;;;;;52.55;22.38;;;;;;;11.74;97.60;103231.56;5098347;28;20035;-51
2023/02/14 07:39:23;;;;;;;52.37;24.30;;;;;;;11.55;99.91;103235.13;5097209;28;20063;-54
2023/02/14 07:41:49;;;;;;;43.93;21.60;;;;;;;11.47;99.65;103235.84;5082422;28;20341;-51
2023/02/14 07:44:17;;;;;;;54.42;24.33;;;;;;;11.57;99.69;103235.84;5084623;28;20036;-50
2023/02/14 07:46:43;;;;;;;43.00;20.98;;;;;;;11.55;100.00;103238.69;5101822;28;20032;-49
2023/02/14 07:49:09;;;;;;;63.63;26.37;;;;;;;11.99;97.82;103242.66;5102302;28;20059;-52
2023/02/14 07:51:34;;;;;;;55.67;24.93;;;;;;;11.51;100.00;103237.25;5100134;28;20265;-55
2023/02/14 07:54:00;;;;;;;62.47;26.67;;;;;;;11.72;100.00;103233.56;5101960;28;20032;-51
2023/02/14 07:56:25;;;;;;;51.33;25.00;;;;;;;11.83;100.00;103229.84;5103283;28;20052;-51
2023/02/14 07:58:51;;;;;;;49.73;23.53;;;;;;;11.86;98.66;103238.47;5100429;28;20036;-51
2023/02/14 08:01:17;;;;;;;49.30;22.90;;;;;;;11.73;99.85;103232.56;5099248;28;20059;-52
2023/02/14 08:03:44;;;;;;;54.22;23.08;;;;;;;12.05;99.02;103231.41;5104415;28;20039;-49
2023/02/14 08:06:10;;;;;;;50.35;23.05;;;;;;;11.91;99.11;103230.00;5100915;28;20066;-52
2023/02/14 08:08:36;;;;;;;50.28;22.83;;;;;;;11.89;100.00;103230.13;5099858;28;20088;-50
2023/02/14 08:11:02;;;;;;;63.92;27.67;;;;;;;12.13;99.26;103231.50;5097823;28;20043;-52
2023/02/14 08:13:28;;;;;;;47.30;21.87;;;;;;;12.28;97.38;103233.69;5100194;28;20028;-51
2023/02/14 08:16:03;;;;;;;50.03;21.75;;;;;;;12.79;94.84;103230.59;5104403;28;20082;-52
2023/02/14 08:18:30;;;;;;;45.10;22.95;;;;;;;12.62;96.01;103233.09;5101094;28;20036;-50
2023/02/14 08:20:56;;;;;;;53.95;23.48;;;;;;;12.54;97.12;103238.38;5099873;28;20028;-53
2023/02/14 08:23:21;;;;;;;43.00;23.07;;;;;;;12.81;94.79;103237.53;5100319;28;20037;-47
2023/02/14 08:25:48;;;;;;;42.33;21.70;;;;;;;12.30;96.12;103234.41;5104087;28;20059;-51
2023/02/14 08:28:14;;;;;;;40.35;22.05;;;;;;;12.74;94.74;103239.97;5098184;28;20028;-48
2023/02/14 08:30:40;;;;;;;44.13;21.60;;;;;;;12.91;93.92;103240.09;5104588;28;20047;-49
2023/02/14 08:33:06;;;;;;;37.33;19.20;;;;;;;13.38;92.75;103241.72;5095642;28;20277;-55
2023/02/14 08:35:32;;;;;;;37.95;19.23;;;;;;;13.88;89.77;103242.13;5104456;28;20036;-51
2023/02/14 08:37:58;;;;;;;33.28;17.55;;;;;;;14.23;88.17;103245.69;5100519;28;20025;-51
2023/02/14 08:40:23;;;;;;;38.80;19.30;;;;;;;14.51;86.78;103244.59;5105457;28;20062;-52
2023/02/14 08:42:49;;;;;;;38.10;19.77;;;;;;;14.74;85.88;103248.41;5098712;28;20032;-51
2023/02/14 08:45:15;;;;;;;39.92;20.15;;;;;;;14.55;86.86;103246.00;5103101;28;20290;-49
2023/02/14 08:47:41;;;;;;;37.33;19.23;;;;;;;14.56;86.27;103248.50;5095712;28;20040;-51
2023/02/14 08:50:12;;;;;;;37.30;23.33;;;;;;;14.90;85.89;103244.06;5096573;28;20269;-52
2023/02/14 08:52:39;;;;;;;36.80;18.67;;;;;;;15.65;82.16;103246.78;5105444;28;20028;-49
2023/02/14 08:55:06;;;;;;;33.30;18.17;;;;;;;15.84;80.57;103249.13;5101946;28;20041;-52
2023/02/14 08:57:31;;;;;;;34.70;17.10;;;;;;;16.02;78.84;103250.81;5094630;28;20028;-51
2023/02/14 08:59:57;;;;;;;28.75;16.90;;;;;;;16.80;75.41;103250.13;5100334;28;20067;-54
2023/02/14 09:02:23;;;;;;;28.40;16.23;;;;;;;17.13;72.17;103247.25;5097805;28;20028;-52
2023/02/14 09:04:49;;;;;;;30.63;15.43;;;;;;;17.35;70.01;103248.22;5098566;28;20276;-54
2023/02/14 09:07:15;;;;;;;35.47;16.20;;;;;;;18.31;68.10;103252.19;5097155;28;20044;-54
2023/02/14 09:09:40;;;;;;;32.60;15.67;;;;;;;18.63;66.33;103252.75;5101366;28;20101;-53
2023/02/14 09:12:08;;;;;;;28.50;14.93;;;;;;;18.77;64.34;103248.31;5096181;28;20291;-51
2023/02/14 09:14:39;;;;;;;32.60;16.33;;;;;;;19.66;62.30;103253.53;5083958;28;20062;-52
2023/02/14 09:17:05;;;;;;;28.80;16.50;;;;;;;20.26;60.55;103253.06;5096124;28;20269;-52
2023/02/14 09:19:32;;;;;;;28.23;15.10;;;;;;;20.72;58.68;103255.13;5100881;28;20307;-53
2023/02/14 09:21:59;;;;;;;31.90;16.93;;;;;;;21.27;57.24;103245.19;5097609;28;20266;-51
2023/02/14 09:24:26;;;;;;;33.33;15.80;;;;;;;21.37;56.36;103250.19;5096283;28;20299;-54
2023/02/14 09:26:53;;;;;;;34.33;16.53;;;;;;;21.22;56.18;103250.41;5095796;28;20268;-49
2023/02/14 09:29:19;;;;;;;30.33;16.30;;;;;;;21.57;55.59;103255.66;5100606;28;20260;-51
2023/02/14 09:31:44;;;;;;;35.37;16.30;;;;;;;21.78;55.12;103260.03;5100589;28;20047;-51
2023/02/14 09:36:54;;;;;;;29.40;16.13;;;;;;;22.43;53.63;103253.75;5098673;28;20269;-51
2023/02/14 09:39:19;;;;;;;34.20;16.53;;;;;;;22.95;52.21;103258.28;5102105;28;20299;-53
2023/02/14 09:42:13;;;;;;;29.08;15.20;;;;;;;23.53;51.30;103255.56;5101766;28;20273;-52
2023/02/14 09:45:03;;;;;;;34.03;16.13;;;;;;;23.67;50.40;103258.97;5096563;28;20051;-51
2023/02/14 09:47:39;;;;;;;26.87;15.73;;;;;;;24.25;49.70;103257.72;5097072;28;20268;-54
2023/02/14 09:50:20;;;;;;;28.93;16.27;;;;;;;24.73;48.62;103258.75;5100871;28;20264;-54
2023/02/14 09:52:50;;;;;;;31.77;16.77;;;;;;;23.61;49.58;103247.91;5093455;28;20269;-49
2023/02/14 09:55:17;;;;;;;29.77;16.93;;;;;;;24.46;48.95;103248.22;5094135;28;20032;-52
2023/02/14 09:58:04;;;;;;;34.47;18.90;;;;;;;24.53;48.51;103241.81;5093754;28;20024;-54
2023/02/14 10:00:44;;;;;;;30.93;17.00;;;;;;;24.89;47.99;103240.03;5095347;28;20024;-54
2023/02/14 10:03:45;;;;;;;30.97;17.57;;;;;;;25.88;46.11;103241.28;5095121;28;20044;-50
2023/02/14 10:06:10;;;;;;;27.73;16.57;;;;;;;25.69;45.53;103245.22;5102131;28;20032;-49
2023/02/14 10:09:06;;;;;;;30.25;17.13;;;;;;;24.73;46.49;103247.81;5095445;28;20067;-51
2023/02/14 10:11:33;;;;;;;29.63;16.90;;;;;;;25.97;44.96;103246.38;5092286;28;20044;-50
2023/02/14 10:14:17;;;;;;;27.70;16.23;;;;;;;26.14;44.46;103252.75;5097486;28;20056;-50
2023/02/14 10:17:15;;;;;;;26.47;15.43;;;;;;;27.04;42.71;103257.75;5097560;28;20028;-51
2023/02/14 10:19:56;;;;;;;;;;;;;;;27.30;42.02;103254.56;5097404;28;20053;-53
2023/02/14 10:22:32;;;;;;;30.30;16.10;;;;;;;26.95;42.22;103244.69;5099182;28;19912;-50
2023/02/14 10:25:04;;;;;;;29.27;15.77;;;;;;;27.53;41.05;103237.09;5096342;28;20025;-52
2023/02/14 10:27:38;;;;;;;31.87;17.27;;;;;;;27.12;41.23;103241.94;5095783;28;20032;-52
2023/02/14 10:30:21;;;;;;;26.57;15.47;;;;;;;27.00;41.29;103245.59;5102722;28;20032;-54
2023/02/14 10:33:27;;;;;;;27.40;16.43;;;;;;;27.73;40.55;103241.19;5101296;28;20028;-51
2023/02/14 10:36:20;;;;;;;27.83;15.97;;;;;;;27.60;40.15;103243.22;4984973;28;20035;-55
2023/02/14 10:39:00;;;;;;;30.73;15.87;;;;;;;27.94;39.53;103242.28;4979665;28;20051;-55
2023/02/14 10:41:47;;;;;;;27.43;16.00;;;;;;;27.77;40.25;103236.84;5071786;28;20070;-54
2023/02/14 10:44:49;;;;;;;25.15;15.65;;;;;;;28.11;39.47;103236.69;5101890;28;20040;-53
2023/02/14 10:47:46;;;;;;;30.37;15.97;;;;;;;27.80;39.44;103233.59;5098414;28;20059;-52
2023/02/14 10:50:38;;;;;;;27.53;15.60;;;;;;;28.03;39.64;103228.91;5098222;28;20032;-53
2023/02/14 10:53:13;;;;;;;27.00;16.47;;;;;;;29.46;37.99;103236.03;5090966;28;20073;-52
2023/02/14 10:55:45;;;;;;;25.20;14.87;;;;;;;30.49;36.17;103240.25;5102379;28;20033;-56
2023/02/14 10:58:16;;;;;;;26.30;15.93;;;;;;;29.85;36.63;103228.47;5101847;28;20028;-51
2023/02/14 11:00:55;;;;;;;27.40;16.43;;;;;;;30.09;36.29;103237.13;5103361;28;20059;-56
2023/02/14 11:03:21;;;;;;;25.57;15.43;;;;;;;30.63;35.26;103246.06;5099636;28;20107;-52
2023/02/14 11:05:48;;;;;;;;;;;;;;;31.22;34.66;103241.13;5093326;28;20040;-55
2023/02/14 11:08:14;;;;;;;;;;;;;;;30.66;34.81;103237.25;5095731;28;19935;-53
2023/02/14 11:10:40;;;;;;;27.63;16.47;;;;;;;31.39;34.07;103238.03;5100857;28;19922;-55
2023/02/14 11:13:25;;;;;;;;;;;;;;;30.50;34.56;103232.81;5097279;28;20273;-52
2023/02/14 11:15:52;;;;;;;27.63;15.77;;;;;;;30.65;34.02;103235.59;5099501;28;19943;-51
2023/02/14 11:18:31;;;;;;;26.20;14.43;;;;;;;30.48;34.23;103231.16;5100167;28;20025;-51
2023/02/14 11:21:03;;;;;;;23.53;13.90;;;;;;;30.80;33.85;103225.66;5099176;28;20032;-52
2023/02/14 11:23:41;;;;;;;22.97;14.83;;;;;;;30.85;33.31;103222.88;5101169;28;20032;-53
2023/02/14 11:26:10;;;;;;;26.27;15.27;;;;;;;31.07;33.54;103221.75;5103668;28;20027;-54
2023/02/14 11:28:43;;;;;;;24.63;14.88;;;;;;;31.22;33.29;103219.00;5097727;28;20044;-56
2023/02/14 11:31:09;;;;;;;25.20;15.43;;;;;;;32.42;32.92;103213.78;5100634;28;20024;-55
2023/02/14 11:33:41;;;;;;;22.48;14.27;;;;;;;32.59;31.93;103218.91;5100090;28;20044;-54